createdAt,value
2023-03-21T00:04:25.567Z,98774.04
2023-03-21T00:09:28.690Z,98766.84
2023-03-21T00:14:38.152Z,98773.25
2023-03-21T00:19:41.329Z,98771.13
2023-03-21T00:24:43.234Z,98772.94
2023-03-21T00:29:45.333Z,98771.58
2023-03-21T00:35:01.497Z,98770.04
2023-03-21T00:40:23.288Z,98766.39
2023-03-21T00:45:28.681Z,98764.78
2023-03-21T00:50:34.407Z,98767.71
2023-03-21T00:55:39.065Z,98761.98
2023-03-21T01:00:41.472Z,98759.46
2023-03-21T01:06:05.189Z,98760.22
2023-03-21T01:11:17.328Z,98752.11
2023-03-21T01:16:19.852Z,98751.01
2023-03-21T01:21:22.183Z,98745.46
2023-03-21T01:26:24.223Z,98741.00
2023-03-21T01:31:26.129Z,98736.99
2023-03-21T01:36:28.595Z,98734.52
2023-03-21T01:41:43.499Z,98736.85
2023-03-21T01:47:07.660Z,98732.73
2023-03-21T01:52:35.822Z,98728.47
2023-03-21T01:57:58.472Z,98722.17
2023-03-21T02:03:16.976Z,98721.52
2023-03-21T02:08:39.269Z,98717.46
2023-03-21T02:13:45.867Z,98715.11
2023-03-21T02:19:20.105Z,98716.66
2023-03-21T02:24:51.376Z,98718.71
2023-03-21T02:30:26.514Z,98719.73
2023-03-21T02:35:54.505Z,98719.06
2023-03-21T02:41:18.064Z,98724.67
2023-03-21T02:46:49.170Z,98725.33
2023-03-21T02:52:12.177Z,98729.55
2023-03-21T02:57:19.406Z,98730.72
2023-03-21T03:02:27.255Z,98724.13
2023-03-21T03:07:56.881Z,98721.14
2023-03-21T03:13:09.758Z,98722.34
2023-03-21T03:18:24.145Z,98723.99
2023-03-21T03:23:43.516Z,98719.82
2023-03-21T03:28:51.641Z,98721.14
2023-03-21T03:33:58.741Z,98720.87
2023-03-21T03:39:04.777Z,98717.67
2023-03-21T03:44:07.293Z,98715.98
2023-03-21T03:49:39.720Z,98711.92
2023-03-21T03:54:46.076Z,98713.56
2023-03-21T03:59:48.292Z,98707.61
2023-03-21T04:05:09.546Z,98702.08
2023-03-21T04:10:11.648Z,98709.21
2023-03-21T04:15:16.324Z,98710.85
2023-03-21T04:20:35.625Z,98712.12
2023-03-21T04:25:47.585Z,98714.52
2023-03-21T04:31:03.788Z,98719.72
2023-03-21T04:36:26.345Z,98718.98
2023-03-21T04:41:31.051Z,98721.20
2023-03-21T04:46:34.036Z,98720.52
2023-03-21T04:51:37.466Z,98713.02
2023-03-21T04:56:39.954Z,98706.66
2023-03-21T05:06:30.466Z,98705.73
2023-03-21T05:11:33.474Z,98709.60
2023-03-21T05:16:36.577Z,98716.80
2023-03-21T05:21:41.984Z,98716.67
2023-03-21T05:26:50.702Z,98721.23
2023-03-21T05:31:53.744Z,98718.80
2023-03-21T05:36:56.332Z,98717.83
2023-03-21T05:41:59.961Z,98720.63
2023-03-21T05:47:02.851Z,98721.05
2023-03-21T05:52:11.880Z,98723.09
2023-03-21T05:57:14.612Z,98722.70
2023-03-21T06:02:34.110Z,98720.27
2023-03-21T06:07:38.187Z,98727.40
2023-03-21T06:12:43.064Z,98728.02
2023-03-21T06:17:59.483Z,98734.66
2023-03-21T06:23:01.655Z,98739.08
2023-03-21T06:28:04.408Z,98741.85
2023-03-21T06:33:08.004Z,98751.55
2023-03-21T06:38:10.862Z,98753.97
2023-03-21T06:43:13.927Z,98758.21
2023-03-21T06:48:16.189Z,98759.27
2023-03-21T06:53:29.925Z,98763.38
2023-03-21T06:58:50.478Z,98771.57
2023-03-21T07:04:21.109Z,98779.06
2023-03-21T07:09:27.996Z,98783.48
2023-03-21T07:14:34.610Z,98786.04
2023-03-21T07:19:36.683Z,98786.58
2023-03-21T07:24:38.385Z,98790.59
2023-03-21T07:29:40.845Z,98785.76
2023-03-21T07:34:42.626Z,98784.55
2023-03-21T07:39:44.383Z,98783.14
2023-03-21T07:44:46.499Z,98786.16
2023-03-21T07:49:48.268Z,98792.41
2023-03-21T07:54:49.946Z,98791.54
2023-03-21T07:59:51.784Z,98797.56
2023-03-21T08:04:53.508Z,98795.67
2023-03-21T08:09:55.814Z,98797.52
2023-03-21T08:15:00.598Z,98800.70
2023-03-21T08:20:04.735Z,98802.30
2023-03-21T08:25:08.577Z,98808.20
2023-03-21T08:30:12.427Z,98808.11
2023-03-21T08:35:16.791Z,98806.67
2023-03-21T08:40:19.006Z,98809.73
2023-03-21T08:45:20.975Z,98811.73
2023-03-21T08:50:26.625Z,98819.25
2023-03-21T08:55:28.469Z,98818.52
2023-03-21T09:00:30.312Z,98817.67
2023-03-21T09:05:32.080Z,98823.55
2023-03-21T09:10:34.697Z,98822.26
2023-03-21T09:15:36.685Z,98827.73
2023-03-21T09:20:40.424Z,98831.35
2023-03-21T09:25:45.151Z,98837.45
2023-03-21T09:30:46.957Z,98842.17
2023-03-21T09:35:51.747Z,98841.63
2023-03-21T09:41:17.224Z,98847.51
2023-03-21T09:46:31.944Z,98847.90
2023-03-21T09:51:42.221Z,98850.46
2023-03-21T09:56:45.489Z,98854.48
2023-03-21T10:01:49.614Z,98846.88
2023-03-21T10:06:59.814Z,98843.65
2023-03-21T10:12:14.520Z,98846.17
2023-03-21T10:17:26.376Z,98844.17
2023-03-21T10:22:28.106Z,98841.58
2023-03-21T10:27:30.711Z,98843.67
2023-03-21T10:32:32.577Z,98845.80
2023-03-21T10:37:36.342Z,98847.02
2023-03-21T10:42:38.109Z,98846.88
2023-03-21T10:47:40.103Z,98843.23
2023-03-21T10:53:00.550Z,98842.58
2023-03-21T10:58:08.743Z,98838.26
2023-03-21T11:03:23.799Z,98841.11
2023-03-21T11:08:27.398Z,98839.83
2023-03-21T11:13:41.091Z,98841.60
2023-03-21T11:18:45.567Z,98840.73
2023-03-21T11:23:51.840Z,98838.49
2023-03-21T11:28:55.306Z,98838.42
2023-03-21T11:33:57.203Z,98844.31
2023-03-21T11:39:12.881Z,98840.77
2023-03-21T11:44:33.658Z,98836.52
2023-03-21T11:49:35.499Z,98828.77
2023-03-21T11:54:47.292Z,98831.61
2023-03-21T11:59:57.356Z,98828.83
2023-03-21T12:05:21.792Z,98823.90
2023-03-21T12:10:49.158Z,98823.28
2023-03-21T12:16:27.744Z,98814.71
2023-03-21T12:22:03.249Z,98812.13
2023-03-21T12:27:37.023Z,98804.73
2023-03-21T12:32:44.668Z,98803.39
2023-03-21T12:38:01.940Z,98798.45
2023-03-21T12:43:21.872Z,98790.02
2023-03-21T12:48:47.825Z,98788.30
2023-03-21T12:54:15.823Z,98780.75
2023-03-21T12:59:25.270Z,98775.21
2023-03-21T13:04:49.861Z,98768.29
2023-03-21T13:09:55.148Z,98761.59
2023-03-21T13:15:23.179Z,98759.90
2023-03-21T13:20:44.077Z,98759.20
2023-03-21T13:25:51.528Z,98759.89
2023-03-21T13:31:14.048Z,98758.02
2023-03-21T13:36:25.854Z,98754.89
2023-03-21T13:41:35.220Z,98752.34
2023-03-21T13:46:53.452Z,98748.90
2023-03-21T13:51:58.448Z,98749.45
2023-03-21T13:57:04.724Z,98745.30
2023-03-21T14:02:15.586Z,98739.77
2023-03-21T14:07:27.187Z,98735.14
2023-03-21T14:12:34.804Z,98734.43
2023-03-21T14:17:36.854Z,98729.23
2023-03-21T14:22:42.134Z,98733.71
2023-03-21T14:27:48.433Z,98727.70
2023-03-21T14:32:50.761Z,98727.35
2023-03-21T14:37:52.563Z,98724.42
2023-03-21T14:42:55.433Z,98725.45
2023-03-21T14:48:05.667Z,98721.23
2023-03-21T14:53:11.781Z,98722.56
2023-03-21T14:58:17.688Z,98720.20
2023-03-21T15:03:22.264Z,98720.36
2023-03-21T15:08:26.430Z,98722.73
2023-03-21T15:13:32.048Z,98719.10
2023-03-21T15:18:37.572Z,98715.85
2023-03-21T15:23:48.292Z,98709.70
2023-03-21T15:28:56.088Z,98705.92
2023-03-21T15:33:57.989Z,98704.89
2023-03-21T15:39:06.478Z,98705.75
2023-03-21T15:44:08.115Z,98696.28
2023-03-21T15:49:16.190Z,98697.30
2023-03-21T15:54:31.366Z,98693.14
2023-03-21T15:59:36.981Z,98690.88
2023-03-21T16:04:55.941Z,98689.82
2023-03-21T16:10:01.027Z,98694.92
2023-03-21T16:15:02.985Z,98693.39
2023-03-21T16:20:32.581Z,98680.70
2023-03-21T16:25:35.444Z,98684.84
2023-03-21T16:30:38.730Z,98686.92
2023-03-21T16:35:40.742Z,98694.83
2023-03-21T16:40:44.036Z,98701.27
2023-03-21T16:45:45.857Z,98707.86
2023-03-21T16:50:48.293Z,98706.36
2023-03-21T16:55:50.353Z,98711.02
2023-03-21T17:00:52.137Z,98718.05
2023-03-21T17:05:53.956Z,98724.23
2023-03-21T17:10:55.924Z,98725.84
2023-03-21T17:15:57.821Z,98725.08
2023-03-21T17:20:59.494Z,98727.43
2023-03-21T17:26:02.311Z,98733.60
2023-03-21T17:31:06.590Z,98739.57
2023-03-21T17:36:24.519Z,98740.25
2023-03-21T17:41:27.430Z,98744.51
2023-03-21T17:46:34.373Z,98740.37
2023-03-21T17:51:36.261Z,98739.49
2023-03-21T17:56:37.975Z,98738.27
2023-03-21T18:01:39.917Z,98737.37
2023-03-21T18:06:41.782Z,98734.94
2023-03-21T18:11:46.006Z,98735.25
2023-03-21T18:16:50.684Z,98739.15
2023-03-21T18:21:52.498Z,98737.94
2023-03-21T18:26:54.715Z,98739.45
2023-03-21T18:32:06.890Z,98744.14
2023-03-21T18:37:13.144Z,98744.68
2023-03-21T18:42:18.859Z,98748.53
2023-03-21T18:47:23.022Z,98749.69
2023-03-21T18:52:27.091Z,98748.77
2023-03-21T18:57:38.227Z,98751.05
2023-03-21T19:02:45.651Z,98748.88
2023-03-21T19:07:49.277Z,98752.55
2023-03-21T19:12:52.820Z,98761.04
2023-03-21T19:18:30.693Z,98768.47
2023-03-21T19:23:18.660Z,98772.12
2023-03-21T19:28:20.837Z,98771.73
2023-03-21T19:33:24.550Z,98774.08
2023-03-21T19:38:26.484Z,98770.46
2023-03-21T19:43:33.001Z,98763.57
2023-03-21T19:48:38.037Z,98756.09
2023-03-21T19:53:40.491Z,98757.06
2023-03-21T19:58:42.363Z,98753.77
2023-03-21T20:03:47.492Z,98755.61
2023-03-21T20:09:27.177Z,98758.00
2023-03-21T20:14:12.591Z,98758.29
2023-03-21T20:19:16.273Z,98760.33
2023-03-21T20:24:18.553Z,98758.08
2023-03-21T20:34:44.470Z,98757.18
2023-03-21T20:39:46.594Z,98754.09
2023-03-21T20:44:58.312Z,98753.77
2023-03-21T20:50:01.085Z,98747.14
2023-03-21T20:55:03.195Z,98746.30
2023-03-21T21:00:13.562Z,98739.92
2023-03-21T21:05:28.391Z,98743.46
2023-03-21T21:10:33.562Z,98741.86
2023-03-21T21:15:35.704Z,98731.60
2023-03-21T21:20:38.779Z,98729.55
2023-03-21T21:25:40.791Z,98736.08
2023-03-21T21:30:42.868Z,98734.89
2023-03-21T21:35:48.069Z,98728.58
2023-03-21T21:40:51.808Z,98722.91
2023-03-21T21:45:54.199Z,98718.56
2023-03-21T21:50:55.985Z,98712.85
2023-03-21T21:55:57.642Z,98703.98
2023-03-21T22:01:01.897Z,98698.52
2023-03-21T22:06:05.019Z,98692.31
2023-03-21T22:11:07.836Z,98692.30
2023-03-21T22:16:14.324Z,98701.43
2023-03-21T22:21:16.403Z,98711.45
2023-03-21T22:26:18.213Z,98712.57
2023-03-21T22:31:20.702Z,98711.55
2023-03-21T22:36:22.484Z,98715.66
2023-03-21T22:41:25.425Z,98715.48
2023-03-21T22:46:28.086Z,98707.45
2023-03-21T22:51:32.821Z,98704.99
2023-03-21T22:56:34.686Z,98706.80
2023-03-21T23:01:36.466Z,98707.56
2023-03-21T23:06:39.019Z,98697.41
2023-03-21T23:11:41.004Z,98693.26
2023-03-21T23:16:45.057Z,98692.23
2023-03-21T23:21:48.226Z,98691.34
2023-03-21T23:26:50.422Z,98693.98
2023-03-21T23:31:52.218Z,98696.36
2023-03-21T23:36:53.989Z,98701.61
2023-03-21T23:41:55.921Z,98703.98
2023-03-21T23:46:57.691Z,98703.57
2023-03-21T23:51:59.346Z,98701.10
2023-03-21T23:57:01.496Z,98695.98
